createdAt,value
2022-10-21T00:01:45.345Z,16.19
2022-10-21T00:04:13.336Z,16.24
2022-10-21T00:06:40.512Z,16.30
2022-10-21T00:09:07.714Z,16.18
2022-10-21T00:11:35.163Z,15.73
2022-10-21T00:14:02.296Z,16.08
2022-10-21T00:16:29.429Z,15.91
2022-10-21T00:18:56.887Z,15.73
2022-10-21T00:21:24.049Z,15.58
2022-10-21T00:23:51.210Z,15.71
2022-10-21T00:26:18.719Z,15.94
2022-10-21T00:28:45.879Z,15.74
2022-10-21T00:31:13.619Z,15.69
2022-10-21T00:33:41.154Z,15.56
2022-10-21T00:36:08.894Z,15.89
2022-10-21T00:38:36.050Z,15.71
2022-10-21T00:41:03.427Z,15.89
2022-10-21T00:43:31.428Z,15.35
2022-10-21T00:46:02.412Z,15.55
2022-10-21T00:48:36.748Z,15.76
2022-10-21T00:51:03.814Z,15.97
2022-10-21T00:53:31.280Z,15.96
2022-10-21T00:55:59.925Z,15.81
2022-10-21T00:58:28.427Z,15.52
2022-10-21T01:00:56.765Z,15.71
2022-10-21T01:03:24.368Z,15.92
2022-10-21T01:05:51.524Z,15.64
2022-10-21T01:08:19.043Z,15.89
2022-10-21T01:10:46.169Z,15.85
2022-10-21T01:13:27.468Z,15.57
2022-10-21T01:16:01.318Z,15.86
2022-10-21T01:18:31.264Z,15.64
2022-10-21T01:21:07.689Z,15.85
2022-10-21T01:23:46.816Z,15.32
2022-10-21T01:26:33.042Z,15.65
2022-10-21T01:29:00.139Z,15.36
2022-10-21T01:31:36.467Z,15.79
2022-10-21T01:34:06.562Z,15.05
2022-10-21T01:36:36.922Z,14.80
2022-10-21T01:39:04.020Z,15.14
2022-10-21T01:41:39.646Z,15.36
2022-10-21T01:44:10.246Z,15.47
2022-10-21T01:46:39.707Z,15.28
2022-10-21T01:49:10.308Z,15.41
2022-10-21T01:51:37.452Z,15.18
2022-10-21T01:54:09.170Z,14.95
2022-10-21T01:56:36.593Z,15.14
2022-10-21T01:59:03.762Z,15.28
2022-10-21T02:01:31.527Z,15.50
2022-10-21T02:03:59.340Z,15.41
2022-10-21T02:06:26.592Z,15.00
2022-10-21T02:08:53.767Z,15.38
2022-10-21T02:11:21.251Z,15.29
2022-10-21T02:13:51.713Z,15.19
2022-10-21T02:16:19.049Z,15.38
2022-10-21T02:18:46.474Z,15.18
2022-10-21T02:21:14.697Z,15.17
2022-10-21T02:24:00.775Z,14.76
2022-10-21T02:26:28.218Z,14.85
2022-10-21T02:28:55.675Z,14.63
2022-10-21T02:31:34.134Z,14.69
2022-10-21T02:34:10.966Z,14.75
2022-10-21T02:36:41.140Z,14.53
2022-10-21T02:39:28.818Z,14.91
2022-10-21T02:41:55.975Z,14.94
2022-10-21T02:44:23.422Z,15.25
2022-10-21T02:46:50.556Z,15.11
2022-10-21T02:49:17.731Z,14.96
2022-10-21T02:51:45.154Z,15.05
2022-10-21T02:54:12.499Z,14.69
2022-10-21T02:56:39.644Z,14.50
2022-10-21T02:59:07.199Z,14.39
2022-10-21T03:01:34.368Z,14.38
2022-10-21T03:04:01.532Z,14.68
2022-10-21T03:06:28.957Z,14.69
2022-10-21T03:08:56.128Z,14.64
2022-10-21T03:11:23.366Z,14.22
2022-10-21T03:13:50.789Z,14.52
2022-10-21T03:19:05.375Z,14.93
2022-10-21T03:21:32.524Z,14.90
2022-10-21T03:23:59.687Z,14.84
2022-10-21T03:26:27.149Z,14.57
2022-10-21T03:28:54.319Z,14.79
2022-10-21T03:31:21.470Z,14.81
2022-10-21T03:33:48.893Z,14.60
2022-10-21T03:36:16.023Z,14.47
2022-10-21T03:38:43.187Z,14.68
2022-10-21T03:41:10.578Z,14.60
2022-10-21T03:43:37.708Z,14.81
2022-10-21T03:46:04.870Z,14.55
2022-10-21T03:48:32.270Z,14.70
2022-10-21T03:50:59.401Z,14.72
2022-10-21T03:53:42.248Z,14.69
2022-10-21T03:56:11.535Z,14.69
2022-10-21T03:58:38.667Z,14.66
2022-10-21T04:01:05.875Z,14.70
2022-10-21T04:03:33.307Z,14.70
2022-10-21T04:06:00.582Z,14.42
2022-10-21T04:08:27.765Z,14.39
2022-10-21T04:10:57.110Z,14.76
2022-10-21T04:13:24.327Z,14.29
2022-10-21T04:15:51.692Z,14.20
2022-10-21T04:18:25.110Z,14.17
2022-10-21T04:20:52.251Z,13.63
2022-10-21T04:23:19.766Z,13.96
2022-10-21T04:25:46.952Z,14.16
2022-10-21T04:28:14.064Z,14.14
2022-10-21T04:30:45.233Z,14.25
2022-10-21T04:33:12.845Z,14.26
2022-10-21T04:35:40.289Z,14.15
2022-10-21T04:38:07.955Z,13.94
2022-10-21T04:40:35.092Z,14.01
2022-10-21T04:43:02.344Z,13.73
2022-10-21T04:45:29.755Z,13.12
2022-10-21T04:48:16.286Z,12.90
2022-10-21T04:50:43.739Z,12.24
2022-10-21T04:53:10.898Z,12.84
2022-10-21T04:55:41.088Z,13.20
2022-10-21T04:58:08.531Z,13.02
2022-10-21T05:00:35.769Z,12.60
2022-10-21T05:03:02.997Z,13.13
2022-10-21T05:05:30.404Z,13.63
2022-10-21T05:07:57.539Z,14.07
2022-10-21T05:10:25.607Z,13.82
2022-10-21T05:12:53.310Z,13.73
2022-10-21T05:15:20.597Z,13.67
2022-10-21T05:17:47.728Z,14.14
2022-10-21T05:20:15.204Z,14.22
2022-10-21T05:22:42.455Z,13.55
2022-10-21T05:25:09.757Z,14.19
2022-10-21T05:27:37.282Z,14.50
2022-10-21T05:30:04.684Z,14.32
2022-10-21T05:32:31.774Z,13.94
2022-10-21T05:34:59.145Z,14.48
2022-10-21T05:37:26.244Z,14.28
2022-10-21T05:39:53.356Z,14.49
2022-10-21T05:42:20.727Z,14.51
2022-10-21T05:44:48.313Z,14.31
2022-10-21T05:47:15.419Z,14.21
2022-10-21T05:49:42.817Z,13.82
2022-10-21T05:52:09.946Z,14.42
2022-10-21T05:54:37.103Z,13.26
2022-10-21T05:57:04.500Z,13.18
2022-10-21T05:59:31.641Z,13.74
2022-10-21T06:01:58.802Z,13.71
2022-10-21T06:04:26.230Z,13.71
2022-10-21T06:06:53.412Z,13.98
2022-10-21T06:09:20.577Z,13.77
2022-10-21T06:11:47.992Z,14.03
2022-10-21T06:14:15.187Z,13.99
2022-10-21T06:16:42.333Z,14.26
2022-10-21T06:19:09.756Z,14.28
2022-10-21T06:21:36.866Z,14.62
2022-10-21T06:24:04.014Z,14.59
2022-10-21T06:26:33.356Z,13.91
2022-10-21T06:29:03.333Z,13.77
2022-10-21T06:31:30.477Z,14.23
2022-10-21T06:33:57.877Z,14.76
2022-10-21T06:36:25.041Z,14.75
2022-10-21T06:38:52.156Z,14.91
2022-10-21T06:41:19.588Z,14.67
2022-10-21T06:43:46.713Z,13.74
2022-10-21T06:46:14.507Z,13.56
2022-10-21T06:48:42.240Z,13.96
2022-10-21T06:51:15.101Z,14.54
2022-10-21T06:53:43.160Z,14.73
2022-10-21T06:56:11.474Z,14.26
2022-10-21T06:58:38.883Z,14.48
2022-10-21T07:01:16.454Z,15.13
2022-10-21T07:03:54.267Z,15.26
2022-10-21T07:06:21.785Z,14.14
2022-10-21T07:08:57.776Z,14.30
2022-10-21T07:11:26.416Z,14.17
2022-10-21T07:13:53.520Z,14.43
2022-10-21T07:16:24.653Z,14.81
2022-10-21T07:18:52.067Z,14.95
2022-10-21T07:21:20.243Z,15.11
2022-10-21T07:23:48.077Z,14.38
2022-10-21T07:26:15.446Z,13.62
2022-10-21T07:28:46.825Z,14.22
2022-10-21T07:31:18.239Z,12.87
2022-10-21T07:33:45.747Z,12.69
2022-10-21T07:36:13.957Z,12.77
2022-10-21T07:38:43.862Z,12.62
2022-10-21T07:41:13.929Z,12.36
2022-10-21T07:43:41.084Z,13.33
2022-10-21T07:46:08.254Z,14.19
2022-10-21T07:48:35.656Z,14.29
2022-10-21T07:51:06.682Z,13.65
2022-10-21T07:53:34.506Z,13.98
2022-10-21T07:56:12.419Z,14.33
2022-10-21T07:58:39.569Z,13.73
2022-10-21T08:01:07.488Z,14.18
2022-10-21T08:03:35.051Z,14.20
2022-10-21T08:06:02.261Z,13.95
2022-10-21T08:08:29.589Z,13.15
2022-10-21T08:10:57.017Z,14.08
2022-10-21T08:13:24.338Z,13.86
2022-10-21T08:15:52.201Z,14.50
2022-10-21T08:18:20.163Z,14.42
2022-10-21T08:20:47.467Z,13.51
2022-10-21T08:23:15.548Z,13.15
2022-10-21T08:25:48.952Z,12.77
2022-10-21T08:28:16.174Z,13.56
2022-10-21T08:30:43.985Z,13.62
2022-10-21T08:33:12.074Z,13.61
2022-10-21T08:35:39.392Z,14.27
2022-10-21T08:40:40.556Z,14.76
2022-10-21T08:43:08.757Z,13.84
2022-10-21T08:45:41.472Z,13.82
2022-10-21T08:48:09.175Z,13.93
2022-10-21T08:50:40.470Z,13.57
2022-10-21T08:53:28.195Z,12.64
2022-10-21T08:55:58.897Z,14.26
2022-10-21T08:58:26.037Z,13.84
2022-10-21T09:00:53.095Z,14.16
2022-10-21T09:03:25.040Z,14.17
2022-10-21T09:06:10.988Z,14.46
2022-10-21T09:08:38.330Z,15.59
2022-10-21T09:11:10.742Z,15.03
2022-10-21T09:14:01.594Z,15.60
2022-10-21T09:16:32.630Z,13.68
2022-10-21T09:19:26.341Z,13.56
2022-10-21T09:22:33.911Z,14.04
2022-10-21T09:25:00.610Z,13.88
2022-10-21T09:27:37.855Z,13.55
2022-10-21T09:30:15.904Z,14.22
2022-10-21T09:32:43.587Z,14.57
2022-10-21T09:35:15.650Z,14.32
2022-10-21T09:37:44.778Z,14.57
2022-10-21T09:40:16.708Z,14.53
2022-10-21T09:42:48.322Z,14.99
2022-10-21T09:45:36.309Z,15.40
2022-10-21T09:48:21.633Z,15.24
2022-10-21T09:51:04.323Z,14.24
2022-10-21T09:53:35.126Z,14.57
2022-10-21T09:56:03.911Z,14.96
2022-10-21T09:58:37.181Z,15.05
2022-10-21T10:01:05.409Z,15.17
2022-10-21T10:03:37.031Z,15.45
2022-10-21T10:06:05.214Z,16.41
2022-10-21T10:08:34.636Z,15.87
2022-10-21T10:11:11.421Z,15.56
2022-10-21T10:13:56.984Z,15.84
2022-10-21T10:16:31.249Z,15.83
2022-10-21T10:19:10.998Z,16.22
2022-10-21T10:21:38.143Z,16.52
2022-10-21T10:24:05.890Z,15.69
2022-10-21T10:26:33.635Z,15.64
2022-10-21T10:29:03.207Z,15.27
2022-10-21T10:31:31.983Z,14.94
2022-10-21T10:34:00.560Z,15.40
2022-10-21T10:36:29.245Z,15.49
2022-10-21T10:38:57.223Z,15.49
2022-10-21T10:41:29.597Z,15.49
2022-10-21T10:43:57.794Z,16.46
2022-10-21T10:46:25.969Z,16.72
2022-10-21T10:48:53.426Z,16.67
2022-10-21T10:51:34.323Z,15.74
2022-10-21T10:54:07.593Z,15.92
2022-10-21T10:56:38.506Z,16.27
2022-10-21T10:59:08.585Z,15.94
2022-10-21T11:01:37.944Z,16.25
2022-10-21T11:04:16.347Z,16.60
2022-10-21T11:06:48.588Z,15.39
2022-10-21T11:09:16.015Z,16.28
2022-10-21T11:11:44.090Z,16.65
2022-10-21T11:14:13.650Z,17.17
2022-10-21T11:17:01.175Z,16.78
2022-10-21T11:19:51.977Z,15.94
2022-10-21T11:22:38.610Z,15.51
2022-10-21T11:25:07.198Z,16.19
2022-10-21T11:27:41.548Z,15.55
2022-10-21T11:30:11.714Z,15.94
2022-10-21T11:32:44.262Z,16.36
2022-10-21T11:35:17.808Z,15.88
2022-10-21T11:37:54.110Z,15.56
2022-10-21T11:40:24.353Z,16.11
2022-10-21T11:42:51.738Z,15.87
2022-10-21T11:45:24.353Z,16.68
2022-10-21T11:47:51.917Z,16.86
2022-10-21T11:50:27.986Z,17.05
2022-10-21T11:52:58.564Z,16.35
2022-10-21T11:55:29.324Z,15.90
2022-10-21T11:58:01.035Z,16.64
2022-10-21T12:00:28.245Z,16.20
2022-10-21T12:03:11.012Z,16.56
2022-10-21T12:05:41.902Z,16.59
2022-10-21T12:08:27.395Z,16.58
2022-10-21T12:10:57.586Z,16.61
2022-10-21T12:13:29.277Z,16.18
2022-10-21T12:16:02.391Z,16.81
2022-10-21T12:18:29.896Z,16.74
2022-10-21T12:20:57.166Z,16.72
2022-10-21T12:23:25.294Z,17.00
2022-10-21T12:26:11.534Z,17.21
2022-10-21T12:28:40.694Z,16.82
2022-10-21T12:31:20.946Z,16.89
2022-10-21T12:33:48.221Z,16.64
2022-10-21T12:36:24.828Z,16.65
2022-10-21T12:38:55.795Z,17.29
2022-10-21T12:41:38.995Z,16.43
2022-10-21T12:44:07.420Z,17.14
2022-10-21T12:46:39.116Z,15.74
2022-10-21T12:49:10.522Z,15.76
2022-10-21T12:51:37.948Z,16.45
2022-10-21T12:54:09.159Z,16.47
2022-10-21T12:56:42.410Z,16.58
2022-10-21T12:59:12.232Z,16.44
2022-10-21T13:01:42.200Z,16.82
2022-10-21T13:04:29.509Z,16.21
2022-10-21T13:06:57.231Z,16.58
2022-10-21T13:09:32.163Z,16.51
2022-10-21T13:12:25.546Z,16.24
2022-10-21T13:15:11.831Z,16.09
2022-10-21T13:17:49.384Z,16.46
2022-10-21T13:20:19.760Z,16.01
2022-10-21T13:22:47.572Z,16.59
2022-10-21T13:25:20.238Z,16.89
2022-10-21T13:27:54.681Z,17.61
2022-10-21T13:30:28.868Z,16.93
2022-10-21T13:33:00.265Z,16.29
2022-10-21T13:35:47.869Z,16.70
2022-10-21T13:38:23.064Z,17.36
2022-10-21T13:40:57.079Z,17.21
2022-10-21T13:43:28.790Z,17.13
2022-10-21T13:46:05.690Z,17.13
2022-10-21T13:48:37.447Z,17.21
2022-10-21T13:51:15.913Z,17.21
2022-10-21T13:53:45.740Z,16.75
2022-10-21T13:56:26.308Z,16.80
2022-10-21T13:58:53.745Z,17.16
2022-10-21T14:01:23.083Z,17.13
2022-10-21T14:03:51.600Z,16.13
2022-10-21T14:06:25.999Z,16.62
2022-10-21T14:08:53.429Z,16.16
2022-10-21T14:11:24.438Z,16.03
2022-10-21T14:13:51.628Z,16.23
2022-10-21T14:16:29.669Z,16.54
2022-10-21T14:18:56.836Z,16.72
2022-10-21T14:21:25.053Z,17.06
2022-10-21T14:23:52.691Z,16.81
2022-10-21T14:26:19.856Z,16.97
2022-10-21T14:28:48.922Z,16.58
2022-10-21T14:31:16.081Z,16.78
2022-10-21T14:33:45.114Z,16.78
2022-10-21T14:36:14.737Z,17.18
2022-10-21T14:38:43.349Z,17.77
2022-10-21T14:41:18.047Z,16.85
2022-10-21T14:43:45.743Z,17.25
2022-10-21T14:46:12.989Z,16.82
2022-10-21T14:48:44.305Z,16.32
2022-10-21T14:51:16.526Z,16.41
2022-10-21T14:53:51.430Z,16.63
2022-10-21T14:56:22.741Z,16.01
2022-10-21T14:58:57.180Z,16.14
2022-10-21T15:01:25.049Z,16.17
2022-10-21T15:03:53.592Z,15.92
2022-10-21T15:06:25.380Z,16.26
2022-10-21T15:08:56.935Z,16.04
2022-10-21T15:11:30.032Z,16.21
2022-10-21T15:14:16.017Z,16.02
2022-10-21T15:16:51.954Z,15.83
2022-10-21T15:19:27.602Z,15.84
2022-10-21T15:21:58.704Z,15.61
2022-10-21T15:24:44.782Z,15.91
2022-10-21T15:27:19.282Z,15.73
2022-10-21T15:29:47.417Z,16.31
2022-10-21T15:32:24.519Z,16.22
2022-10-21T15:34:55.710Z,16.23
2022-10-21T15:37:23.143Z,16.88
2022-10-21T15:39:50.388Z,16.60
2022-10-21T15:42:18.566Z,16.32
2022-10-21T15:44:49.573Z,16.31
2022-10-21T15:47:17.000Z,16.27
2022-10-21T15:49:46.047Z,16.02
2022-10-21T15:52:13.965Z,16.02
2022-10-21T15:54:41.547Z,16.18
2022-10-21T15:57:19.660Z,15.44
2022-10-21T15:59:47.053Z,15.93
2022-10-21T16:02:17.056Z,15.65
2022-10-21T16:04:45.585Z,15.82
2022-10-21T16:07:18.657Z,15.28
2022-10-21T16:09:46.822Z,15.16
2022-10-21T16:12:14.450Z,15.35
2022-10-21T16:14:41.592Z,15.30
2022-10-21T16:17:09.466Z,16.29
2022-10-21T16:19:36.692Z,16.31
2022-10-21T16:22:05.831Z,16.02
2022-10-21T16:24:33.719Z,16.40
2022-10-21T16:27:08.794Z,15.99
2022-10-21T16:29:36.287Z,16.60
2022-10-21T16:32:03.648Z,16.07
2022-10-21T16:34:30.881Z,16.20
2022-10-21T16:37:00.041Z,15.79
2022-10-21T16:39:27.333Z,15.80
2022-10-21T16:41:54.768Z,16.18
2022-10-21T16:44:22.613Z,16.30
2022-10-21T16:46:51.335Z,15.96
2022-10-21T16:49:21.436Z,15.57
2022-10-21T16:51:49.256Z,15.58
2022-10-21T16:54:16.408Z,15.53
2022-10-21T16:56:44.447Z,15.88
2022-10-21T16:59:11.892Z,15.57
2022-10-21T17:01:40.052Z,15.69
2022-10-21T17:04:07.175Z,14.88
2022-10-21T17:06:34.913Z,15.67
2022-10-21T17:09:02.484Z,15.82
2022-10-21T17:11:32.927Z,16.23
2022-10-21T17:14:00.912Z,15.88
2022-10-21T17:16:28.106Z,15.69
2022-10-21T17:18:55.608Z,15.80
2022-10-21T17:21:27.335Z,15.99
2022-10-21T17:23:54.840Z,16.33
2022-10-21T17:26:22.412Z,16.07
2022-10-21T17:28:50.753Z,15.94
2022-10-21T17:31:19.987Z,16.07
2022-10-21T17:33:48.316Z,16.33
2022-10-21T17:36:16.336Z,16.03
2022-10-21T17:38:43.682Z,16.22
2022-10-21T17:41:11.641Z,15.64
2022-10-21T17:43:39.483Z,15.46
2022-10-21T17:46:07.484Z,16.05
2022-10-21T17:48:35.082Z,16.17
2022-10-21T17:51:02.631Z,15.82
2022-10-21T17:53:30.074Z,15.92
2022-10-21T17:55:59.417Z,15.92
2022-10-21T17:58:27.411Z,16.75
2022-10-21T18:00:58.690Z,16.52
2022-10-21T18:03:27.359Z,16.68
2022-10-21T18:05:58.014Z,17.07
2022-10-21T18:08:25.983Z,17.16
2022-10-21T18:10:55.607Z,16.60
2022-10-21T18:13:23.879Z,16.88
2022-10-21T18:15:52.147Z,16.57
2022-10-21T18:18:20.286Z,16.57
2022-10-21T18:20:48.035Z,15.65
2022-10-21T18:23:16.957Z,16.39
2022-10-21T18:25:44.641Z,16.76
2022-10-21T18:28:12.466Z,16.26
2022-10-21T18:30:46.639Z,15.86
2022-10-21T18:33:15.620Z,16.02
2022-10-21T18:35:44.016Z,17.10
2022-10-21T18:38:12.234Z,16.84
2022-10-21T18:40:43.730Z,15.71
2022-10-21T18:43:21.811Z,15.87
2022-10-21T18:45:50.237Z,15.58
2022-10-21T18:48:19.095Z,16.08
2022-10-21T18:50:49.610Z,16.02
2022-10-21T18:53:18.249Z,15.96
2022-10-21T18:55:45.960Z,15.86
2022-10-21T18:58:14.203Z,16.00
2022-10-21T19:00:41.906Z,16.43
2022-10-21T19:03:10.837Z,16.64
2022-10-21T19:05:42.614Z,16.48
2022-10-21T19:08:10.620Z,16.25
2022-10-21T19:10:38.284Z,16.57
2022-10-21T19:13:05.952Z,17.30
2022-10-21T19:15:34.609Z,17.05
2022-10-21T19:18:02.509Z,16.06
2022-10-21T19:20:30.820Z,15.77
2022-10-21T19:22:59.578Z,15.79
2022-10-21T19:25:27.994Z,16.03
2022-10-21T19:27:56.294Z,15.22
2022-10-21T19:30:23.566Z,15.49
2022-10-21T19:32:51.128Z,15.90
2022-10-21T19:35:19.334Z,15.66
2022-10-21T19:37:46.691Z,15.13
2022-10-21T19:40:14.318Z,16.31
2022-10-21T19:42:42.436Z,15.70
2022-10-21T19:45:11.003Z,16.51
2022-10-21T19:47:41.789Z,16.11
2022-10-21T19:52:37.577Z,16.14
2022-10-21T19:55:05.387Z,16.81
2022-10-21T19:57:33.363Z,16.23
2022-10-21T20:00:01.655Z,16.20
2022-10-21T20:02:41.407Z,16.34
2022-10-21T20:05:09.895Z,16.08
2022-10-21T20:07:38.045Z,16.10
2022-10-21T20:10:06.036Z,16.45
2022-10-21T20:12:33.547Z,16.70
2022-10-21T20:15:01.124Z,16.84
2022-10-21T20:17:29.021Z,17.03
2022-10-21T20:19:57.365Z,16.76
2022-10-21T20:22:25.014Z,16.39
2022-10-21T20:24:52.562Z,16.45
2022-10-21T20:27:20.023Z,16.84
2022-10-21T20:29:48.435Z,16.97
2022-10-21T20:32:15.940Z,16.76
2022-10-21T20:34:43.749Z,17.12
2022-10-21T20:37:11.182Z,16.65
2022-10-21T20:39:38.665Z,16.84
2022-10-21T20:42:06.680Z,16.92
2022-10-21T20:44:33.877Z,17.85
2022-10-21T20:47:01.392Z,17.08
2022-10-21T20:49:29.195Z,17.64
2022-10-21T20:51:56.561Z,17.96
2022-10-21T20:54:25.107Z,17.58
2022-10-21T20:56:52.742Z,17.66
2022-10-21T20:59:20.143Z,17.82
2022-10-21T21:01:47.439Z,17.90
2022-10-21T21:04:15.697Z,18.23
2022-10-21T21:06:44.464Z,18.61
2022-10-21T21:12:00.553Z,17.73
2022-10-21T21:14:28.042Z,17.58
2022-10-21T21:16:55.362Z,17.82
2022-10-21T21:19:22.790Z,18.16
2022-10-21T21:21:49.971Z,17.42
2022-10-21T21:24:17.131Z,18.17
2022-10-21T21:26:44.564Z,18.29
2022-10-21T21:29:11.759Z,18.17
2022-10-21T21:31:39.284Z,18.78
2022-10-21T21:34:07.287Z,18.80
2022-10-21T21:36:34.683Z,18.74
2022-10-21T21:39:01.902Z,18.51
2022-10-21T21:41:29.447Z,18.36
2022-10-21T21:43:59.791Z,17.22
2022-10-21T21:46:26.989Z,17.97
2022-10-21T21:49:00.997Z,18.51
2022-10-21T21:51:30.089Z,18.16
2022-10-21T21:53:57.879Z,18.51
2022-10-21T21:56:25.460Z,19.15
2022-10-21T21:59:12.510Z,19.05
2022-10-21T22:01:39.950Z,19.32
2022-10-21T22:04:07.458Z,19.16
2022-10-21T22:06:35.581Z,19.37
2022-10-21T22:09:03.848Z,18.70
2022-10-21T22:11:31.993Z,18.92
2022-10-21T22:13:59.425Z,19.40
2022-10-21T22:16:30.297Z,19.60
2022-10-21T22:18:59.900Z,19.83
2022-10-21T22:21:27.210Z,19.82
2022-10-21T22:23:54.422Z,20.02
2022-10-21T22:26:23.309Z,20.18
2022-10-21T22:28:50.548Z,20.27
2022-10-21T22:31:17.999Z,20.42
2022-10-21T22:33:45.551Z,20.50
2022-10-21T22:36:12.697Z,20.48
2022-10-21T22:38:39.878Z,20.39
2022-10-21T22:41:11.495Z,20.61
2022-10-21T22:44:00.949Z,20.70
2022-10-21T22:46:33.860Z,20.67
2022-10-21T22:49:01.991Z,20.53
2022-10-21T22:51:29.517Z,20.48
2022-10-21T22:53:57.124Z,20.63
2022-10-21T22:56:24.748Z,19.96
2022-10-21T22:58:52.221Z,19.72
2022-10-21T23:01:19.718Z,19.90
2022-10-21T23:03:46.914Z,19.88
2022-10-21T23:06:15.212Z,19.99
2022-10-21T23:08:42.433Z,19.91
2022-10-21T23:11:09.628Z,20.26
2022-10-21T23:13:51.062Z,20.08
2022-10-21T23:16:26.791Z,20.09
2022-10-21T23:18:54.326Z,20.24
2022-10-21T23:21:44.480Z,20.44
2022-10-21T23:24:19.760Z,20.37
2022-10-21T23:26:49.561Z,20.38
2022-10-21T23:29:17.206Z,20.46
2022-10-21T23:31:51.726Z,20.42
2022-10-21T23:34:20.316Z,20.56
2022-10-21T23:36:47.540Z,20.57
2022-10-21T23:39:17.712Z,20.62
2022-10-21T23:41:45.288Z,20.37
2022-10-21T23:44:12.574Z,20.14
2022-10-21T23:46:39.856Z,20.37
2022-10-21T23:49:07.576Z,20.40
2022-10-21T23:51:35.137Z,20.11
2022-10-21T23:54:08.120Z,20.31
2022-10-21T23:56:36.100Z,20.26
2022-10-21T23:59:03.617Z,20.17
